« 2010年9月の別海~2日目~知床岬~北見農道~釧路ナイト! | トップページ | 2010年9月の別海~4日目(最終日)~別海FP~羅臼~中標津空港ドライブ »

2010年9月 5日 (日)

2010年9月の別海~3日目~釧路~釧路湿原~霧多布~納沙布岬~野付半島と温泉

RJCK 050100Z 18006KT 9999 FEW030 BKN060 22/18 Q1014
RJCK 050200Z 19004KT 160V220 9999 FEW003 BKN050 21/18 Q1013
RJCN 050200Z 24013KT 9999 FEW050 BKN100 26/16 Q1012
RJCN 050300Z 23012KT 9999 FEW050 BKN090 27/15 Q1012
RJCN 050600Z 21007KT 9999 FEW045 BKN060 24/16 Q1011
RJCN 050800Z 20005KT 9999 -SHRA FEW035 BKN090 22/19 Q1011
RJCN 050900Z 20005KT 9999 FEW035 BKN070 21/18 Q1011

今日は午後からにわか雨の予報なので、勝負は午前中です~( ̄ー ̄)ニヤリ
まずは、別海FPからレンタカーで釧路空港まで陸路で移動。レンタカーを返却して、
釧路空港のターミナルで朝食をとります。
蝦夷鹿バーガーと蝦夷鹿ドック?・・・・結構、おいしかったです~

さっそく機体の係留を解いて点検をします。フライトプランは機内から携帯電話
で釧路空港情報官室に入れました。

ルートは~
釧路空港~釧路湿原~霧多布~納沙布岬~野付半島~別海FP
として、所要時間は3時間とします。

定期便が到着してから、釧路空港をRWY17で離陸して、まずは釧路湿原を遊覧します。
まだ、秋の気配は感じられませんが蛇行する釧路川を下るカヌーを眺めたりして楽しみ
ます。

塘路湖に向かう途中、結構強い風を感じたので別海フライトサービスを呼び出すと
230度から15KT程度吹いているみたいです。上空では25KT程度吹いていて少しゆれま
すがこの程度ならさんも大丈夫みたいです。

塘路湖から厚岸湾を経由して霧多布湿原を遊覧します。この辺りもなんとも言えぬ
雰囲気がとっても好きです(笑)
霧多布のアゼチ岬と湯沸岬を上空から遊覧して、キャンピングカーで行った時に良く
釣りをした浜中漁港の堤防を見て納沙布岬方面に向かいます。

この辺りから、防空レーダーにモニターをお願いして飛びます。
ムツゴロウ王国や花咲線の初田牛駅を遊覧して、風連湖上空を通り
納沙布岬を時計回りに一周します。

防空レーダーからはしきりに
海岸線が見えているか?とか北方四島の空域まであと4マイル!とか言われて
北方領土が近い事が感じられます。
この日は天気が良くロシアが主張する中間線のブイが良く見えます!
防空レーダーにインテンションを伝え納沙布岬の先を見ようと海岸線を少しだけ
越えて空撮しますが、防空レーダーから直ぐに進路を変えるように言われます。

次に向かうは野付半島ですが、高度を上げて半島の形がよく見えるようにします。
防空レーダーにはしばらく西に飛んでから(防空識別圏の内側を飛ぶように)野付
半島に向かう旨を伝えたら「協力に感謝すます」と言われました(*^-^)



125_
朝食は釧路空港ターミナルで蝦夷鹿バーガーと蝦夷鹿ドック

126_ 係留ロープを解いて出発準備をします。

128 ターミナル前のスポットには旅客機が止まってます。

129 定期便の出発と重ならない様に~

131 釧路空港を離陸する形機長~

132 釧路空港RWY17を離陸~!

134 まずは釧路湿原へ・・・・

137 釧路川~

138 釧路川を下るカヌー

139 気持ち良さそうですね!

140 釧路川は蛇行しています~


141
厚岸~

143
厚岸湖と厚岸湾


144
霧多布湿原

147
霧多布沖にある小島

149_
アゼチ岬

152
浜中湾

153
霧多布岬(湯沸岬)

154
霧多布岬キャンプ場

156
霧多布岬

202
2枚岩

203
花咲線の初田牛駅

205
風連湖

208
根室港~

 

209
根室半島を時計回りに~

210
北方四島はすぐそこです~

212
納沙布岬を回り込みます~

213
野付半島~5,000ft~

214
野付半島~1,000ft

216
野付半島ネイチャーセンター

218
オンネニクル湾?

219rwy14
別海FP、RWY14オン・ショートファイナル~牛発見!

220
屈斜路湖~

221
釧路川源流部~

222
砂湯~

224
砂湯~

228
虹が出ました~

4434s
北海シマエビ~

4438s
ほっけ定食~





|

« 2010年9月の別海~2日目~知床岬~北見農道~釧路ナイト! | トップページ | 2010年9月の別海~4日目(最終日)~別海FP~羅臼~中標津空港ドライブ »

別海合宿」カテゴリの記事